Terminal Aerodrome Forecast
Issued by NWS

Home | Current Version | Previous Version | Text Only | Print | Product List | Glossary On
Versions: 1 2 3 4 5 6 7 8 9 10 11 12 13 14 15 16 17 18 19 20 21 22 23 24 25 26 27 28 29 30 31 32 33 34 35
000
FTUS43 KDMX 020149 AAA
TAFMCW
TAF AMD
KMCW 020149Z 0202/0224 VRB03KT 3SM BR SCT150
      TEMPO 0202/0205 1/2SM FG SCT006
     FM020600 VRB03KT 1SM BR BKN005
     FM021400 VRB06KT 3SM BR VCSH SCT009 BKN016
     FM022000 33011KT 5SM BR VCSH SCT012 BKN020=

USA.gov is the U.S. government's official web portal to all federal, state and local government web resources and services.